createdAt,value
2023-05-17T00:00:06.954Z,2.80
2023-05-17T00:05:09.503Z,2.60
2023-05-17T00:10:11.667Z,2.95
2023-05-17T00:15:14.658Z,3.20
2023-05-17T00:20:16.845Z,2.88
2023-05-17T00:25:18.962Z,3.00
2023-05-17T00:30:21.162Z,3.63
2023-05-17T00:35:23.580Z,2.83
2023-05-17T00:40:26.762Z,2.50
2023-05-17T00:45:29.460Z,3.00
2023-05-17T00:50:31.847Z,2.75
2023-05-17T00:55:34.077Z,3.35
2023-05-17T01:00:36.362Z,2.80
2023-05-17T01:05:38.798Z,2.80
2023-05-17T01:10:49.475Z,2.83
2023-05-17T01:16:09.901Z,3.53
2023-05-17T01:21:35.308Z,3.20
2023-05-17T01:26:44.119Z,3.45
2023-05-17T01:31:48.498Z,3.50
2023-05-17T01:36:52.470Z,3.15
2023-05-17T01:42:03.457Z,3.60
2023-05-17T01:47:38.333Z,3.63
2023-05-17T01:52:53.873Z,3.85
2023-05-17T01:57:57.364Z,3.92
2023-05-17T02:02:59.584Z,3.67
2023-05-17T02:08:01.806Z,4.05
2023-05-17T02:13:04.511Z,3.90
2023-05-17T02:18:09.680Z,4.23
2023-05-17T02:23:12.001Z,4.85
2023-05-17T02:28:14.086Z,4.15
2023-05-17T02:33:16.304Z,4.20
2023-05-17T02:38:18.431Z,4.65
2023-05-17T02:43:20.502Z,5.28
2023-05-17T02:48:22.609Z,5.13
2023-05-17T02:53:24.734Z,5.55
2023-05-17T02:58:27.138Z,5.22
2023-05-17T03:03:29.567Z,5.80
2023-05-17T03:08:31.927Z,6.25
2023-05-17T03:13:35.723Z,6.85
2023-05-17T03:18:38.168Z,6.50
2023-05-17T03:23:40.741Z,6.07
2023-05-17T03:28:42.861Z,7.20
2023-05-17T03:33:46.266Z,4.82
2023-05-17T03:38:49.042Z,7.22
2023-05-17T03:43:51.864Z,7.13
2023-05-17T03:48:56.278Z,7.28
2023-05-17T03:53:59.666Z,6.65
2023-05-17T03:59:03.671Z,7.25
2023-05-17T04:04:06.934Z,7.55
2023-05-17T04:09:10.902Z,7.47
2023-05-17T04:14:15.330Z,6.93
2023-05-17T04:19:18.724Z,7.28
2023-05-17T04:24:21.127Z,7.47
2023-05-17T04:29:23.960Z,7.28
2023-05-17T04:34:26.312Z,7.40
2023-05-17T04:39:31.239Z,7.50
2023-05-17T04:44:33.984Z,7.50
2023-05-17T04:49:37.240Z,7.68
2023-05-17T04:54:39.436Z,7.40
2023-05-17T04:59:41.695Z,7.07
2023-05-17T05:04:44.142Z,7.80
2023-05-17T05:09:48.431Z,7.78
2023-05-17T05:14:52.401Z,7.20
2023-05-17T05:19:55.042Z,7.22
2023-05-17T05:24:57.546Z,6.40
2023-05-17T05:29:59.766Z,7.00
2023-05-17T05:35:02.177Z,6.07
2023-05-17T05:40:04.769Z,6.90
2023-05-17T05:45:08.361Z,6.22
2023-05-17T05:50:11.521Z,4.72
2023-05-17T05:55:14.430Z,4.93
2023-05-17T06:00:18.493Z,4.25
2023-05-17T06:05:22.134Z,3.30
2023-05-17T06:10:24.604Z,3.22
2023-05-17T06:15:27.897Z,3.03
2023-05-17T06:20:30.270Z,2.78
2023-05-17T06:25:32.683Z,3.17
2023-05-17T06:30:35.669Z,2.75
2023-05-17T06:35:47.947Z,2.53
2023-05-17T06:40:58.570Z,3.10
2023-05-17T06:46:00.756Z,2.33
2023-05-17T06:51:03.187Z,2.38
2023-05-17T06:56:05.368Z,2.25
2023-05-17T07:01:08.015Z,2.45
2023-05-17T07:06:10.181Z,2.42
2023-05-17T07:11:12.391Z,2.03
2023-05-17T07:16:14.526Z,1.75
2023-05-17T07:21:16.613Z,2.28
2023-05-17T07:26:20.690Z,2.50
2023-05-17T07:31:22.828Z,2.50
2023-05-17T07:36:27.462Z,2.10
2023-05-17T07:41:29.904Z,2.45
2023-05-17T07:46:32.113Z,3.10
2023-05-17T07:51:35.226Z,2.40
2023-05-17T07:56:37.324Z,2.60
2023-05-17T08:01:39.721Z,2.70
2023-05-17T08:06:43.245Z,2.42
2023-05-17T08:11:48.195Z,2.67
2023-05-17T08:16:51.827Z,2.70
2023-05-17T08:21:54.134Z,2.83
2023-05-17T08:26:56.551Z,1.80
2023-05-17T08:31:58.824Z,2.03
2023-05-17T08:37:01.094Z,2.03
2023-05-17T08:42:07.703Z,1.95
2023-05-17T08:47:11.994Z,2.22
2023-05-17T08:52:14.604Z,2.15
2023-05-17T08:57:18.118Z,1.70
2023-05-17T09:02:21.044Z,1.90
2023-05-17T09:07:23.142Z,1.63
2023-05-17T09:12:25.780Z,1.70
2023-05-17T09:17:28.036Z,1.92
2023-05-17T09:22:30.720Z,1.48
2023-05-17T09:27:32.889Z,1.67
2023-05-17T09:32:35.093Z,1.80
2023-05-17T09:37:42.749Z,2.00
2023-05-17T09:42:48.033Z,1.67
2023-05-17T09:47:51.448Z,1.80
2023-05-17T09:52:53.680Z,1.40
2023-05-17T09:58:03.152Z,1.92
2023-05-17T10:03:07.257Z,1.50
2023-05-17T10:08:13.419Z,1.50
2023-05-17T10:13:17.413Z,1.73
2023-05-17T10:18:20.864Z,1.88
2023-05-17T10:23:23.630Z,1.67
2023-05-17T10:28:27.449Z,1.95
2023-05-17T10:33:33.171Z,1.45
2023-05-17T10:38:42.490Z,1.65
2023-05-17T10:43:46.413Z,1.75
2023-05-17T10:48:52.373Z,1.40
2023-05-17T10:54:04.902Z,1.50
2023-05-17T10:59:22.325Z,1.52
2023-05-17T11:04:33.462Z,1.40
2023-05-17T11:09:35.643Z,1.08
2023-05-17T11:14:46.884Z,1.70
2023-05-17T11:25:16.949Z,1.33
2023-05-17T11:30:31.642Z,1.30
2023-05-17T11:35:38.675Z,1.52
2023-05-17T11:40:41.897Z,1.20
2023-05-17T11:45:44.997Z,1.60
2023-05-17T11:50:48.303Z,1.67
2023-05-17T11:55:51.839Z,1.63
2023-05-17T12:00:58.984Z,1.83
2023-05-17T12:06:10.055Z,1.60
2023-05-17T12:11:19.464Z,1.52
2023-05-17T12:16:23.630Z,1.30
2023-05-17T12:21:25.835Z,1.20
2023-05-17T12:26:27.958Z,1.40
2023-05-17T12:31:32.761Z,1.40
2023-05-17T12:36:37.117Z,1.80
2023-05-17T12:41:39.776Z,1.83
2023-05-17T12:46:42.097Z,1.63
2023-05-17T12:51:45.505Z,1.45
2023-05-17T12:56:47.781Z,2.00
2023-05-17T13:01:52.484Z,1.90
2023-05-17T13:07:02.438Z,1.70
2023-05-17T13:12:07.977Z,1.60
2023-05-17T13:17:11.685Z,2.00
2023-05-17T13:22:15.407Z,1.98
2023-05-17T13:27:17.583Z,1.75
2023-05-17T13:32:21.220Z,1.90
2023-05-17T13:37:23.326Z,4.43
2023-05-17T13:42:25.605Z,1.48
2023-05-17T13:47:30.079Z,1.70
2023-05-17T13:52:32.328Z,1.40
2023-05-17T13:57:34.397Z,1.45
2023-05-17T14:02:37.036Z,1.30
2023-05-17T14:07:41.495Z,1.73
2023-05-17T14:12:44.049Z,1.50
2023-05-17T14:17:46.456Z,1.73
2023-05-17T14:22:48.714Z,1.50
2023-05-17T14:27:51.449Z,1.75
2023-05-17T14:32:53.595Z,1.67
2023-05-17T14:37:56.526Z,1.58
2023-05-17T14:42:58.676Z,1.90
2023-05-17T14:48:00.851Z,1.92
2023-05-17T14:53:03.155Z,2.00
2023-05-17T14:58:06.432Z,2.10
2023-05-17T15:03:09.189Z,2.00
2023-05-17T15:08:12.304Z,2.25
2023-05-17T15:13:14.421Z,1.58
2023-05-17T15:18:29.304Z,1.77
2023-05-17T15:23:32.983Z,1.50
2023-05-17T15:28:35.514Z,2.28
2023-05-17T15:33:45.341Z,1.95
2023-05-17T15:38:47.800Z,2.00
2023-05-17T15:43:51.085Z,2.30
2023-05-17T15:48:53.604Z,2.20
2023-05-17T15:53:56.621Z,2.20
2023-05-17T15:59:01.184Z,1.70
2023-05-17T16:04:05.393Z,1.77
2023-05-17T16:09:07.586Z,2.17
2023-05-17T16:14:10.113Z,2.50
2023-05-17T16:19:12.839Z,1.80
2023-05-17T16:24:15.293Z,1.77
2023-05-17T16:29:18.580Z,2.10
2023-05-17T16:34:21.383Z,1.88
2023-05-17T16:39:25.648Z,2.00
2023-05-17T16:44:27.728Z,2.00
2023-05-17T16:49:30.507Z,2.10
2023-05-17T16:54:33.694Z,2.20
2023-05-17T16:59:36.239Z,2.28
2023-05-17T17:04:38.835Z,2.00
2023-05-17T17:09:41.128Z,2.00
2023-05-17T17:14:43.581Z,1.70
2023-05-17T17:19:45.982Z,2.25
2023-05-17T17:24:48.330Z,2.00
2023-05-17T17:29:51.427Z,1.80
2023-05-17T17:34:53.884Z,2.00
2023-05-17T17:39:56.234Z,2.00
2023-05-17T17:45:00.366Z,2.33
2023-05-17T17:50:02.745Z,1.88
2023-05-17T17:55:06.411Z,1.75
2023-05-17T18:00:12.986Z,1.80
2023-05-17T18:05:15.629Z,2.03
2023-05-17T18:10:18.110Z,2.30
2023-05-17T18:15:20.467Z,1.95
2023-05-17T18:20:22.727Z,1.80
2023-05-17T18:25:24.990Z,1.60
2023-05-17T18:30:27.241Z,1.73
2023-05-17T18:35:29.570Z,1.60
2023-05-17T18:40:31.900Z,1.70
2023-05-17T18:45:36.375Z,1.92
2023-05-17T18:50:38.488Z,1.83
2023-05-17T18:55:41.279Z,2.03
2023-05-17T19:00:45.263Z,1.75
2023-05-17T19:05:48.012Z,1.70
2023-05-17T19:10:50.239Z,1.48
2023-05-17T19:15:52.739Z,1.90
2023-05-17T19:20:54.810Z,1.77
2023-05-17T19:25:57.086Z,2.03
2023-05-17T19:30:59.212Z,1.83
2023-05-17T19:36:01.546Z,1.95
2023-05-17T19:41:04.925Z,2.13
2023-05-17T19:46:10.503Z,2.15
2023-05-17T19:51:12.897Z,2.20
2023-05-17T19:56:14.969Z,2.35
2023-05-17T20:01:17.210Z,1.83
2023-05-17T20:06:19.391Z,2.05
2023-05-17T20:11:21.608Z,1.70
2023-05-17T20:16:27.851Z,1.45
2023-05-17T20:21:31.332Z,1.85
2023-05-17T20:26:36.717Z,2.10
2023-05-17T20:31:38.986Z,1.73
2023-05-17T20:36:41.427Z,2.65
2023-05-17T20:41:43.704Z,2.50
2023-05-17T20:46:46.296Z,2.00
2023-05-17T20:51:48.532Z,1.92
2023-05-17T20:56:50.935Z,2.80
2023-05-17T21:01:53.901Z,2.60
2023-05-17T21:06:58.118Z,2.20
2023-05-17T21:12:00.819Z,2.10
2023-05-17T21:17:03.473Z,2.35
2023-05-17T21:22:05.778Z,2.17
2023-05-17T21:27:07.889Z,1.88
2023-05-17T21:32:10.029Z,1.73
2023-05-17T21:37:12.469Z,1.90
2023-05-17T21:42:14.698Z,2.28
2023-05-17T21:47:16.813Z,1.90
2023-05-17T21:52:19.316Z,1.65
2023-05-17T21:57:21.449Z,1.95
2023-05-17T22:02:23.662Z,1.70
2023-05-17T22:07:26.174Z,2.05
2023-05-17T22:12:28.564Z,2.30
2023-05-17T22:17:42.549Z,1.75
2023-05-17T22:22:49.759Z,1.90
2023-05-17T22:27:51.939Z,2.10
2023-05-17T22:32:57.045Z,2.17
2023-05-17T22:37:59.447Z,1.83
2023-05-17T22:43:02.220Z,1.90
2023-05-17T22:48:05.615Z,2.65
2023-05-17T22:53:08.089Z,2.08
2023-05-17T22:58:10.209Z,2.08
2023-05-17T23:03:12.377Z,2.70
2023-05-17T23:08:17.868Z,2.20
2023-05-17T23:13:20.113Z,3.75
2023-05-17T23:18:22.370Z,2.83
2023-05-17T23:23:24.455Z,1.85
2023-05-17T23:28:26.632Z,2.55
2023-05-17T23:33:31.216Z,1.80
2023-05-17T23:38:33.488Z,2.00
2023-05-17T23:43:35.615Z,2.40
2023-05-17T23:48:37.877Z,2.50
2023-05-17T23:53:42.080Z,3.00
2023-05-17T23:58:45.932Z,2.75
